createdAt,value
2022-10-12T00:00:06.526Z,55.80
2022-10-12T00:01:14.608Z,55.80
2022-10-12T00:02:17.023Z,55.80
2022-10-12T00:03:19.966Z,55.80
2022-10-12T00:04:24.205Z,55.80
2022-10-12T00:05:26.759Z,55.80
2022-10-12T00:06:29.137Z,55.80
2022-10-12T00:07:31.554Z,55.80
2022-10-12T00:08:36.512Z,55.80
2022-10-12T00:09:39.207Z,55.80
2022-10-12T00:10:44.072Z,55.80
2022-10-12T00:11:46.748Z,55.80
2022-10-12T00:12:49.437Z,55.80
2022-10-12T00:13:52.664Z,55.80
2022-10-12T00:14:56.619Z,55.80
2022-10-12T00:16:12.162Z,55.80
2022-10-12T00:17:14.571Z,55.80
2022-10-12T00:18:18.280Z,55.80
2022-10-12T00:19:21.803Z,55.80
2022-10-12T00:20:24.123Z,55.80
2022-10-12T00:21:27.836Z,55.80
2022-10-12T00:22:31.621Z,56.30
2022-10-12T00:23:36.373Z,55.80
2022-10-12T00:24:42.162Z,55.80
2022-10-12T00:25:45.391Z,55.80
2022-10-12T00:26:51.594Z,55.80
2022-10-12T00:27:55.307Z,55.80
2022-10-12T00:29:01.178Z,55.80
2022-10-12T00:30:04.276Z,55.80
2022-10-12T00:31:10.937Z,55.80
2022-10-12T00:32:14.658Z,55.80
2022-10-12T00:33:17.168Z,55.80
2022-10-12T00:34:19.623Z,55.80
2022-10-12T00:35:25.384Z,55.80
2022-10-12T00:36:32.283Z,55.80
2022-10-12T00:37:34.991Z,55.80
2022-10-12T00:38:38.448Z,55.80
2022-10-12T00:39:42.596Z,55.80
2022-10-12T00:40:45.288Z,55.60
2022-10-12T00:41:49.046Z,55.80
2022-10-12T00:42:51.470Z,55.80
2022-10-12T00:43:58.281Z,55.80
2022-10-12T00:45:02.459Z,55.80
2022-10-12T00:46:11.650Z,55.70
2022-10-12T00:47:25.399Z,55.80
2022-10-12T00:48:29.712Z,55.80
2022-10-12T00:49:34.332Z,55.80
2022-10-12T00:50:37.122Z,55.80
2022-10-12T00:51:41.967Z,55.70
2022-10-12T00:52:57.597Z,55.70
2022-10-12T00:54:08.711Z,55.70
2022-10-12T00:55:15.084Z,55.70
2022-10-12T00:56:21.890Z,55.70
2022-10-12T00:57:25.010Z,55.70
2022-10-12T00:58:31.572Z,55.80
2022-10-12T00:59:48.690Z,55.80
2022-10-12T01:00:51.890Z,55.80
2022-10-12T01:01:55.244Z,55.70
2022-10-12T01:02:58.071Z,55.70
2022-10-12T01:04:01.029Z,55.70
2022-10-12T01:05:07.543Z,55.70
2022-10-12T01:06:10.028Z,55.70
2022-10-12T01:07:12.665Z,55.70
2022-10-12T01:08:15.439Z,55.70
2022-10-12T01:09:18.527Z,55.80
2022-10-12T01:10:22.837Z,55.70
2022-10-12T01:11:25.381Z,55.70
2022-10-12T01:12:28.574Z,55.70
2022-10-12T01:13:32.419Z,55.70
2022-10-12T01:14:35.771Z,55.70
2022-10-12T01:15:44.096Z,55.70
2022-10-12T01:17:07.730Z,55.70
2022-10-12T01:18:22.875Z,55.70
2022-10-12T01:19:43.243Z,55.70
2022-10-12T01:20:45.522Z,55.60
2022-10-12T01:21:59.438Z,55.70
2022-10-12T01:23:18.259Z,55.70
2022-10-12T01:24:41.642Z,55.70
2022-10-12T01:25:48.175Z,55.70
2022-10-12T01:27:33.376Z,55.70
2022-10-12T01:29:17.444Z,55.60
2022-10-12T01:30:31.375Z,55.70
2022-10-12T01:31:49.228Z,55.70
2022-10-12T01:33:14.598Z,55.70
2022-10-12T01:34:49.458Z,55.70
2022-10-12T01:36:05.320Z,55.70
2022-10-12T01:37:24.517Z,55.70
2022-10-12T01:38:53.591Z,55.70
2022-10-12T01:40:01.754Z,55.70
2022-10-12T01:41:30.192Z,55.70
2022-10-12T01:42:37.246Z,55.70
2022-10-12T01:43:41.536Z,55.70
2022-10-12T01:44:43.874Z,55.70
2022-10-12T01:45:46.865Z,55.70
2022-10-12T01:46:53.111Z,55.70
2022-10-12T01:47:55.666Z,55.70
2022-10-12T01:49:00.510Z,55.70
2022-10-12T01:50:04.736Z,55.70
2022-10-12T01:51:09.835Z,55.70
2022-10-12T01:52:28.338Z,55.60
2022-10-12T01:54:23.869Z,55.70
2022-10-12T01:55:38.830Z,55.60
2022-10-12T01:56:53.876Z,55.70
2022-10-12T01:58:02.449Z,55.70
2022-10-12T01:59:17.911Z,55.70
2022-10-12T02:00:23.239Z,55.70
2022-10-12T02:01:32.478Z,55.80
2022-10-12T02:02:46.931Z,55.60
2022-10-12T02:04:05.567Z,55.70
2022-10-12T02:05:28.387Z,55.60
2022-10-12T02:06:48.004Z,55.70
2022-10-12T02:08:01.995Z,55.70
2022-10-12T02:09:22.027Z,55.60
2022-10-12T02:10:30.165Z,55.70
2022-10-12T02:11:35.058Z,55.60
2022-10-12T02:12:41.798Z,55.70
2022-10-12T02:14:01.507Z,55.70
2022-10-12T02:15:07.437Z,55.60
2022-10-12T02:16:15.282Z,55.60
2022-10-12T02:17:22.220Z,55.60
2022-10-12T02:18:26.440Z,55.60
2022-10-12T02:19:32.784Z,55.60
2022-10-12T02:20:38.328Z,55.60
2022-10-12T02:21:42.746Z,55.60
2022-10-12T02:22:50.148Z,55.60
2022-10-12T02:23:57.014Z,55.60
2022-10-12T02:25:01.030Z,55.60
2022-10-12T02:26:03.991Z,55.60
2022-10-12T02:27:09.036Z,55.60
2022-10-12T02:28:15.482Z,55.60
2022-10-12T02:29:25.999Z,55.60
2022-10-12T02:30:28.340Z,55.60
2022-10-12T02:31:51.486Z,55.60
2022-10-12T02:33:14.421Z,55.60
2022-10-12T02:34:28.603Z,55.50
2022-10-12T02:35:48.551Z,55.60
2022-10-12T02:37:00.825Z,55.60
2022-10-12T02:38:54.543Z,55.60
2022-10-12T02:40:21.909Z,55.60
2022-10-12T02:41:31.639Z,55.60
2022-10-12T02:43:08.415Z,55.60
2022-10-12T02:44:03.447Z,55.60
2022-10-12T02:45:08.887Z,55.60
2022-10-12T02:46:12.483Z,55.60
2022-10-12T02:47:18.152Z,55.60
2022-10-12T02:48:23.892Z,55.60
2022-10-12T02:49:29.240Z,55.50
2022-10-12T02:50:34.611Z,55.60
2022-10-12T02:51:39.360Z,55.60
2022-10-12T02:52:41.968Z,55.60
2022-10-12T02:53:46.587Z,55.60
2022-10-12T02:54:49.540Z,55.60
2022-10-12T02:56:01.849Z,55.60
2022-10-12T02:57:05.414Z,55.60
2022-10-12T02:58:07.741Z,55.50
2022-10-12T02:59:10.195Z,55.60
2022-10-12T03:00:14.491Z,55.60
2022-10-12T03:01:17.428Z,55.60
2022-10-12T03:02:20.041Z,55.60
2022-10-12T03:03:26.055Z,55.60
2022-10-12T03:04:29.836Z,55.60
2022-10-12T03:05:32.631Z,55.60
2022-10-12T03:06:35.460Z,55.60
2022-10-12T03:07:45.012Z,55.60
2022-10-12T03:08:47.395Z,55.60
2022-10-12T03:09:51.488Z,55.60
2022-10-12T03:10:53.878Z,55.60
2022-10-12T03:11:58.014Z,55.60
2022-10-12T03:13:00.504Z,55.50
2022-10-12T03:14:05.693Z,55.60
2022-10-12T03:15:08.531Z,55.80
2022-10-12T03:16:11.793Z,56.10
2022-10-12T03:17:14.527Z,55.60
2022-10-12T03:18:19.008Z,55.60
2022-10-12T03:19:21.740Z,55.50
2022-10-12T03:20:24.177Z,55.60
2022-10-12T03:21:26.835Z,55.50
2022-10-12T03:22:50.460Z,55.50
2022-10-12T03:23:53.016Z,55.50
2022-10-12T03:24:55.403Z,55.50
2022-10-12T03:25:58.902Z,55.50
2022-10-12T03:27:01.628Z,55.50
2022-10-12T03:28:04.330Z,55.50
2022-10-12T03:29:09.189Z,55.50
2022-10-12T03:30:11.955Z,55.60
2022-10-12T03:31:15.394Z,55.50
2022-10-12T03:32:20.523Z,55.50
2022-10-12T03:33:22.918Z,55.60
2022-10-12T03:34:28.190Z,55.60
2022-10-12T03:35:31.847Z,55.50
2022-10-12T03:36:35.817Z,55.50
2022-10-12T03:37:40.021Z,55.50
2022-10-12T03:38:42.779Z,55.50
2022-10-12T03:39:45.735Z,55.60
2022-10-12T03:40:49.795Z,55.50
2022-10-12T03:41:52.128Z,55.60
2022-10-12T03:42:54.872Z,55.50
2022-10-12T03:43:57.622Z,55.50
2022-10-12T03:45:20.649Z,55.50
2022-10-12T03:46:23.042Z,55.50
2022-10-12T03:47:25.431Z,55.40
2022-10-12T03:48:28.068Z,55.50
2022-10-12T03:49:50.634Z,55.50
2022-10-12T03:50:53.901Z,55.50
2022-10-12T03:51:56.388Z,55.50
2022-10-12T03:53:02.572Z,55.50
2022-10-12T03:54:05.675Z,55.50
2022-10-12T03:55:08.708Z,55.50
2022-10-12T03:56:31.335Z,55.50
2022-10-12T03:57:35.257Z,55.50
2022-10-12T03:58:38.330Z,55.50
2022-10-12T03:59:41.081Z,55.50
2022-10-12T04:00:44.554Z,55.50
2022-10-12T04:01:47.320Z,55.40
2022-10-12T04:02:49.738Z,55.50
2022-10-12T04:03:52.220Z,55.50
2022-10-12T04:04:54.951Z,55.50
2022-10-12T04:05:58.881Z,55.50
2022-10-12T04:07:01.265Z,55.40
2022-10-12T04:08:03.996Z,55.50
2022-10-12T04:09:06.391Z,55.40
2022-10-12T04:10:09.576Z,55.50
2022-10-12T04:11:13.860Z,55.50
2022-10-12T04:12:16.232Z,55.40
2022-10-12T04:13:20.206Z,55.50
2022-10-12T04:14:22.926Z,55.40
2022-10-12T04:15:25.352Z,55.50
2022-10-12T04:16:30.362Z,55.50
2022-10-12T04:17:34.020Z,55.40
2022-10-12T04:18:36.425Z,55.50
2022-10-12T04:19:38.733Z,55.50
2022-10-12T04:20:43.561Z,55.50
2022-10-12T04:21:47.972Z,55.50
2022-10-12T04:22:50.695Z,55.40
2022-10-12T04:23:53.004Z,55.50
2022-10-12T04:24:57.587Z,55.50
2022-10-12T04:26:00.031Z,55.50
2022-10-12T04:27:02.412Z,55.40
2022-10-12T04:28:04.790Z,55.50
2022-10-12T04:29:07.184Z,55.50
2022-10-12T04:30:10.623Z,55.50
2022-10-12T04:31:12.999Z,55.50
2022-10-12T04:32:15.417Z,55.40
2022-10-12T04:33:17.740Z,55.40
2022-10-12T04:34:20.230Z,55.40
2022-10-12T04:35:42.593Z,55.50
2022-10-12T04:36:45.368Z,55.50
2022-10-12T04:37:47.852Z,55.40
2022-10-12T04:38:50.238Z,55.40
2022-10-12T04:39:54.259Z,55.40
2022-10-12T04:40:57.698Z,55.50
2022-10-12T04:42:00.097Z,55.40
2022-10-12T04:43:02.501Z,55.40
2022-10-12T04:44:05.187Z,55.50
2022-10-12T04:45:08.580Z,55.40
2022-10-12T04:46:11.517Z,55.30
2022-10-12T04:47:14.939Z,55.50
2022-10-12T04:48:20.216Z,55.40
2022-10-12T04:49:22.530Z,55.40
2022-10-12T04:50:44.896Z,55.40
2022-10-12T04:51:47.680Z,55.40
2022-10-12T04:52:50.396Z,55.30
2022-10-12T04:53:52.815Z,55.40
2022-10-12T04:54:55.289Z,55.40
2022-10-12T04:56:02.911Z,55.50
2022-10-12T04:57:05.641Z,55.40
2022-10-12T04:58:08.191Z,55.40
2022-10-12T04:59:12.741Z,55.40
2022-10-12T05:00:15.601Z,55.30
2022-10-12T05:01:18.223Z,55.40
2022-10-12T05:02:20.882Z,55.40
2022-10-12T05:03:24.982Z,55.50
2022-10-12T05:04:27.378Z,55.40
2022-10-12T05:05:32.310Z,55.40
2022-10-12T05:06:35.728Z,55.40
2022-10-12T05:07:38.734Z,55.40
2022-10-12T05:08:42.490Z,55.50
2022-10-12T05:09:46.568Z,55.50
2022-10-12T05:10:48.964Z,55.50
2022-10-12T05:11:51.440Z,55.40
2022-10-12T05:12:53.866Z,55.40
2022-10-12T05:13:58.031Z,55.40
2022-10-12T05:15:00.809Z,55.40
2022-10-12T05:16:04.140Z,56.00
2022-10-12T05:17:07.611Z,55.40
2022-10-12T05:18:10.463Z,55.40
2022-10-12T05:19:14.512Z,55.40
2022-10-12T05:20:16.958Z,55.40
2022-10-12T05:21:21.680Z,55.40
2022-10-12T05:22:26.211Z,55.40
2022-10-12T05:23:28.931Z,55.50
2022-10-12T05:24:32.994Z,55.40
2022-10-12T05:25:36.540Z,56.00
2022-10-12T05:26:38.942Z,55.40
2022-10-12T05:27:41.469Z,55.40
2022-10-12T05:28:44.115Z,55.40
2022-10-12T05:29:47.804Z,55.40
2022-10-12T05:30:51.409Z,55.40
2022-10-12T05:31:53.837Z,55.40
2022-10-12T05:32:57.056Z,55.40
2022-10-12T05:34:00.188Z,55.40
2022-10-12T05:35:03.075Z,55.40
2022-10-12T05:36:07.923Z,55.40
2022-10-12T05:37:11.833Z,55.30
2022-10-12T05:38:14.758Z,55.40
2022-10-12T05:39:17.271Z,55.40
2022-10-12T05:40:20.223Z,55.40
2022-10-12T05:41:22.829Z,55.40
2022-10-12T05:42:25.274Z,55.40
2022-10-12T05:43:28.208Z,55.40
2022-10-12T05:44:30.782Z,55.40
2022-10-12T05:45:33.457Z,55.40
2022-10-12T05:46:35.780Z,55.40
2022-10-12T05:47:40.487Z,55.40
2022-10-12T05:48:43.035Z,55.40
2022-10-12T05:49:45.684Z,55.30
2022-10-12T05:50:54.605Z,55.40
2022-10-12T05:51:58.311Z,55.40
2022-10-12T05:53:00.852Z,55.30
2022-10-12T05:54:03.453Z,55.40
2022-10-12T05:55:06.280Z,55.40
2022-10-12T05:56:08.842Z,55.40
2022-10-12T05:57:11.373Z,55.40
2022-10-12T05:58:13.762Z,55.40
2022-10-12T05:59:18.461Z,55.30
2022-10-12T06:00:24.571Z,55.40
2022-10-12T06:01:28.482Z,55.50
2022-10-12T06:02:30.879Z,55.40
2022-10-12T06:03:35.119Z,55.40
2022-10-12T06:04:38.888Z,55.40
2022-10-12T06:05:43.036Z,55.40
2022-10-12T06:06:45.530Z,55.40
2022-10-12T06:07:47.933Z,55.40
2022-10-12T06:08:51.125Z,55.30
2022-10-12T06:09:54.700Z,55.40
2022-10-12T06:10:57.785Z,55.40
2022-10-12T06:12:00.131Z,55.40
2022-10-12T06:13:04.221Z,55.40
2022-10-12T06:14:09.852Z,55.30
2022-10-12T06:15:12.145Z,55.40
2022-10-12T06:16:14.593Z,55.40
2022-10-12T06:17:16.934Z,55.30
2022-10-12T06:18:19.953Z,55.30
2022-10-12T06:19:22.464Z,55.30
2022-10-12T06:20:25.491Z,55.40
2022-10-12T06:21:33.684Z,55.30
2022-10-12T06:22:37.917Z,55.40
2022-10-12T06:23:40.462Z,55.40
2022-10-12T06:24:44.505Z,55.30
2022-10-12T06:25:48.363Z,55.40
2022-10-12T06:26:50.843Z,55.40
2022-10-12T06:27:53.180Z,55.30
2022-10-12T06:28:56.317Z,55.40
2022-10-12T06:29:59.197Z,55.40
2022-10-12T06:31:01.702Z,55.40
2022-10-12T06:32:04.275Z,55.30
2022-10-12T06:33:07.159Z,55.30
2022-10-12T06:34:09.548Z,55.40
2022-10-12T06:35:12.157Z,55.40
2022-10-12T06:36:15.110Z,55.40
2022-10-12T06:37:47.925Z,55.30
2022-10-12T06:38:43.405Z,55.30
2022-10-12T06:39:45.762Z,55.40
2022-10-12T06:40:48.700Z,55.30
2022-10-12T06:41:51.402Z,55.30
2022-10-12T06:42:58.610Z,55.30
2022-10-12T06:44:01.335Z,55.30
2022-10-12T06:45:04.151Z,55.30
2022-10-12T06:46:09.272Z,55.40
2022-10-12T06:47:11.911Z,55.30
2022-10-12T06:48:18.744Z,55.30
2022-10-12T06:49:22.304Z,55.40
2022-10-12T06:50:26.383Z,55.30
2022-10-12T06:51:28.754Z,55.40
2022-10-12T06:52:31.729Z,55.30
2022-10-12T06:53:36.636Z,55.30
2022-10-12T06:54:42.151Z,55.30
2022-10-12T06:55:44.520Z,55.40
2022-10-12T06:56:46.928Z,55.30
2022-10-12T06:57:50.551Z,55.40
2022-10-12T06:58:56.382Z,55.30
2022-10-12T07:00:00.738Z,55.40
2022-10-12T07:01:04.725Z,55.40
2022-10-12T07:02:08.761Z,55.90
2022-10-12T07:03:14.291Z,55.40
2022-10-12T07:04:19.013Z,55.30
2022-10-12T07:05:23.655Z,55.30
2022-10-12T07:06:26.640Z,55.30
2022-10-12T07:07:33.294Z,55.30
2022-10-12T07:08:36.250Z,55.40
2022-10-12T07:09:38.641Z,55.30
2022-10-12T07:10:41.079Z,55.30
2022-10-12T07:11:44.455Z,55.40
2022-10-12T07:12:49.291Z,55.40
2022-10-12T07:13:51.725Z,55.40
2022-10-12T07:15:00.352Z,55.30
2022-10-12T07:16:05.784Z,55.30
2022-10-12T07:17:08.566Z,55.30
2022-10-12T07:18:10.962Z,55.30
2022-10-12T07:19:13.836Z,55.40
2022-10-12T07:20:16.537Z,55.40
2022-10-12T07:21:20.184Z,55.30
2022-10-12T07:22:22.485Z,55.30
2022-10-12T07:23:27.426Z,55.30
2022-10-12T07:24:36.267Z,55.30
2022-10-12T07:25:39.009Z,55.30
2022-10-12T07:26:42.672Z,55.30
2022-10-12T07:27:48.164Z,55.30
2022-10-12T07:28:50.842Z,55.30
2022-10-12T07:29:54.668Z,55.30
2022-10-12T07:31:05.827Z,55.30
2022-10-12T07:32:08.683Z,55.30
2022-10-12T07:33:11.124Z,55.30
2022-10-12T07:34:13.810Z,55.30
2022-10-12T07:35:16.592Z,55.30
2022-10-12T07:36:21.733Z,55.30
2022-10-12T07:37:25.918Z,55.30
2022-10-12T07:38:29.451Z,55.30
2022-10-12T07:39:35.204Z,55.30
2022-10-12T07:40:39.261Z,55.30
2022-10-12T07:41:41.635Z,55.30
2022-10-12T07:43:05.467Z,55.30
2022-10-12T07:44:06.263Z,55.30
2022-10-12T07:45:09.174Z,55.30
2022-10-12T07:46:13.905Z,55.40
2022-10-12T07:47:17.675Z,55.30
2022-10-12T07:48:22.169Z,55.30
2022-10-12T07:49:26.908Z,55.30
2022-10-12T07:50:30.738Z,55.30
2022-10-12T07:51:33.527Z,55.20
2022-10-12T07:52:36.265Z,55.20
2022-10-12T07:53:40.052Z,55.20
2022-10-12T07:54:42.790Z,55.30
2022-10-12T07:55:45.194Z,55.30
2022-10-12T07:56:47.714Z,55.30
2022-10-12T07:57:50.924Z,55.30
2022-10-12T07:58:55.500Z,55.30
2022-10-12T07:59:57.970Z,55.30
2022-10-12T08:01:07.666Z,55.20
2022-10-12T08:02:12.062Z,55.30
2022-10-12T08:03:14.415Z,55.30
2022-10-12T08:04:16.679Z,55.30
2022-10-12T08:05:22.201Z,55.30
2022-10-12T08:06:27.339Z,55.30
2022-10-12T08:07:29.691Z,55.30
2022-10-12T08:08:32.083Z,55.20
2022-10-12T08:09:36.163Z,55.30
2022-10-12T08:10:38.888Z,55.20
2022-10-12T08:11:41.463Z,55.20
2022-10-12T08:12:48.492Z,55.30
2022-10-12T08:13:55.264Z,55.30
2022-10-12T08:14:58.129Z,55.30
2022-10-12T08:16:02.808Z,55.20
2022-10-12T08:17:06.204Z,55.20
2022-10-12T08:18:09.064Z,55.40
2022-10-12T08:19:12.683Z,56.10
2022-10-12T08:20:15.137Z,56.10
2022-10-12T08:21:19.129Z,56.30
2022-10-12T08:22:21.821Z,56.00
2022-10-12T08:23:25.782Z,55.50
2022-10-12T08:24:28.217Z,55.80
2022-10-12T08:25:31.818Z,55.70
2022-10-12T08:26:35.964Z,55.30
2022-10-12T08:27:38.709Z,55.10
2022-10-12T08:28:41.748Z,55.00
2022-10-12T08:29:45.320Z,54.60
2022-10-12T08:30:48.059Z,54.40
2022-10-12T08:31:51.206Z,54.70
2022-10-12T08:32:54.683Z,54.50
2022-10-12T08:33:57.953Z,54.70
2022-10-12T08:35:00.511Z,54.30
2022-10-12T08:36:05.036Z,54.50
2022-10-12T08:37:07.774Z,54.70
2022-10-12T08:38:11.838Z,54.40
2022-10-12T08:39:16.791Z,54.60
2022-10-12T08:40:32.580Z,54.60
2022-10-12T08:41:47.792Z,54.70
2022-10-12T08:43:02.666Z,54.10
2022-10-12T08:44:13.426Z,54.50
2022-10-12T08:45:30.460Z,54.40
2022-10-12T08:46:33.503Z,54.40
2022-10-12T08:47:46.871Z,53.90
2022-10-12T08:49:10.168Z,53.60
2022-10-12T08:50:23.809Z,53.60
2022-10-12T08:51:30.300Z,53.40
2022-10-12T08:52:38.453Z,53.70
2022-10-12T08:53:54.338Z,53.90
2022-10-12T08:55:18.249Z,54.30
2022-10-12T08:56:21.433Z,53.40
2022-10-12T08:57:24.161Z,53.70
2022-10-12T08:58:29.972Z,53.30
2022-10-12T08:59:33.625Z,53.00
2022-10-12T09:00:37.326Z,53.50
2022-10-12T09:02:08.307Z,53.10
2022-10-12T09:03:28.023Z,53.40
2022-10-12T09:04:33.965Z,53.00
2022-10-12T09:06:06.197Z,52.80
2022-10-12T09:07:21.702Z,52.30
2022-10-12T09:08:41.691Z,52.00
2022-10-12T09:10:02.044Z,52.00
2022-10-12T09:11:28.535Z,52.10
2022-10-12T09:13:16.382Z,52.10
2022-10-12T09:14:24.728Z,52.00
2022-10-12T09:15:38.003Z,51.90
2022-10-12T09:16:45.618Z,51.70
2022-10-12T09:17:52.499Z,51.60
2022-10-12T09:19:08.176Z,51.50
2022-10-12T09:20:22.747Z,51.30
2022-10-12T09:21:29.252Z,51.10
2022-10-12T09:22:34.306Z,51.10
2022-10-12T09:23:44.296Z,50.80
2022-10-12T09:24:48.951Z,50.70
2022-10-12T09:25:56.893Z,50.80
2022-10-12T09:27:04.037Z,50.80
2022-10-12T09:28:15.475Z,50.70
2022-10-12T09:29:27.140Z,50.50
2022-10-12T09:30:30.184Z,50.30
2022-10-12T09:32:04.600Z,50.20
2022-10-12T09:33:23.641Z,50.30
2022-10-12T09:34:26.028Z,50.30
2022-10-12T09:35:28.868Z,50.30
2022-10-12T09:36:34.934Z,50.10
2022-10-12T09:37:37.339Z,50.00
2022-10-12T09:38:40.110Z,49.90
2022-10-12T09:39:45.140Z,50.00
2022-10-12T09:40:47.722Z,50.00
2022-10-12T09:41:50.185Z,49.80
2022-10-12T09:42:54.636Z,49.80
2022-10-12T09:44:01.041Z,49.80
2022-10-12T09:45:20.027Z,49.70
2022-10-12T09:46:44.705Z,49.60
2022-10-12T09:48:11.295Z,49.40
2022-10-12T09:49:13.736Z,49.10
2022-10-12T09:50:41.983Z,49.00
2022-10-12T09:51:45.388Z,48.90
2022-10-12T09:52:50.260Z,48.90
2022-10-12T09:53:57.525Z,48.90
2022-10-12T09:55:05.659Z,48.90
2022-10-12T09:56:23.020Z,48.80
2022-10-12T09:57:34.355Z,48.80
2022-10-12T09:58:55.776Z,48.80
2022-10-12T09:59:58.177Z,48.80
2022-10-12T10:01:21.734Z,48.80
2022-10-12T10:02:26.237Z,48.70
2022-10-12T10:03:30.752Z,48.80
2022-10-12T10:04:34.540Z,48.70
2022-10-12T10:05:38.478Z,48.70
2022-10-12T10:06:44.678Z,48.60
2022-10-12T10:07:47.034Z,48.60
2022-10-12T10:08:49.468Z,48.60
2022-10-12T10:10:13.251Z,48.60
2022-10-12T10:11:26.957Z,49.10
2022-10-12T10:12:29.829Z,48.50
2022-10-12T10:13:33.607Z,48.50
2022-10-12T10:14:36.358Z,48.50
2022-10-12T10:15:39.206Z,48.50
2022-10-12T10:16:49.995Z,48.50
2022-10-12T10:17:55.829Z,48.50
2022-10-12T10:19:01.225Z,48.40
2022-10-12T10:20:06.886Z,48.40
2022-10-12T10:21:14.506Z,48.40
2022-10-12T10:22:17.447Z,48.40
2022-10-12T10:23:29.496Z,48.30
2022-10-12T10:24:33.043Z,48.30
2022-10-12T10:25:35.823Z,48.30
2022-10-12T10:26:55.696Z,48.30
2022-10-12T10:28:37.632Z,48.30
2022-10-12T10:29:43.762Z,48.20
2022-10-12T10:30:59.521Z,48.30
2022-10-12T10:32:15.515Z,48.20
2022-10-12T10:33:19.261Z,48.20
2022-10-12T10:34:23.735Z,48.20
2022-10-12T10:35:26.061Z,48.40
2022-10-12T10:36:29.429Z,48.50
2022-10-12T10:37:33.260Z,48.50
2022-10-12T10:38:57.966Z,48.50
2022-10-12T10:40:00.941Z,48.50
2022-10-12T10:41:06.453Z,48.40
2022-10-12T10:42:17.753Z,48.50
2022-10-12T10:43:29.383Z,48.70
2022-10-12T10:44:33.327Z,48.70
2022-10-12T10:45:50.672Z,48.60
2022-10-12T10:47:00.243Z,48.40
2022-10-12T10:48:17.533Z,48.30
2022-10-12T10:49:37.990Z,48.20
2022-10-12T10:50:43.497Z,48.00
2022-10-12T10:51:53.528Z,48.10
2022-10-12T10:53:00.161Z,48.00
2022-10-12T10:54:15.318Z,48.00
2022-10-12T10:55:20.762Z,48.00
2022-10-12T10:56:29.315Z,47.90
2022-10-12T10:57:34.334Z,47.90
2022-10-12T10:58:45.896Z,47.90
2022-10-12T11:00:19.494Z,47.80
2022-10-12T11:01:26.230Z,47.80
2022-10-12T11:02:40.940Z,47.70
2022-10-12T11:03:52.299Z,47.70
2022-10-12T11:05:18.199Z,48.00
2022-10-12T11:06:38.739Z,47.90
2022-10-12T11:07:57.598Z,47.80
2022-10-12T11:09:12.431Z,47.80
2022-10-12T11:10:25.205Z,47.60
2022-10-12T11:11:28.424Z,47.50
2022-10-12T11:12:37.599Z,47.40
2022-10-12T11:13:52.564Z,47.40
2022-10-12T11:15:00.719Z,47.30
2022-10-12T11:16:27.211Z,47.30
2022-10-12T11:17:38.276Z,47.30
2022-10-12T11:19:05.451Z,47.20
2022-10-12T11:20:19.629Z,47.30
2022-10-12T11:21:24.854Z,47.30
2022-10-12T11:22:41.180Z,47.30
2022-10-12T11:24:14.841Z,47.30
2022-10-12T11:25:52.734Z,47.30
2022-10-12T11:27:07.439Z,47.30
2022-10-12T11:28:15.272Z,47.30
2022-10-12T11:29:18.048Z,47.30
2022-10-12T11:30:26.431Z,47.30
2022-10-12T11:31:33.822Z,47.30
2022-10-12T11:32:40.493Z,47.30
2022-10-12T11:33:44.825Z,47.30
2022-10-12T11:34:58.235Z,47.30
2022-10-12T11:36:01.715Z,47.30
2022-10-12T11:37:19.099Z,47.30
2022-10-12T11:38:27.434Z,47.30
2022-10-12T11:39:43.719Z,47.40
2022-10-12T11:42:27.274Z,47.30
2022-10-12T11:43:55.234Z,47.30
2022-10-12T11:45:00.268Z,47.40
2022-10-12T11:46:07.463Z,47.30
2022-10-12T11:47:15.710Z,47.30
2022-10-12T11:48:27.341Z,47.40
2022-10-12T11:49:36.115Z,47.50
2022-10-12T11:50:41.440Z,47.60
2022-10-12T11:51:48.879Z,47.70
2022-10-12T11:52:53.525Z,47.80
2022-10-12T11:54:07.827Z,47.80
2022-10-12T11:55:34.425Z,48.00
2022-10-12T11:56:49.178Z,48.10
2022-10-12T11:57:53.267Z,48.20
2022-10-12T11:59:02.897Z,48.30
2022-10-12T12:00:12.987Z,48.40
2022-10-12T12:01:48.345Z,48.50
2022-10-12T12:02:57.106Z,48.60
2022-10-12T12:04:39.880Z,48.70
2022-10-12T12:05:37.108Z,48.70
2022-10-12T12:06:47.695Z,48.90
2022-10-12T12:07:54.958Z,48.90
2022-10-12T12:09:04.359Z,48.90
2022-10-12T12:10:25.521Z,49.00
2022-10-12T12:11:30.524Z,49.00
2022-10-12T12:12:32.905Z,49.10
2022-10-12T12:13:35.422Z,49.10
2022-10-12T12:14:53.681Z,49.10
2022-10-12T12:15:55.968Z,49.20
2022-10-12T12:17:20.215Z,49.30
2022-10-12T12:18:25.385Z,49.20
2022-10-12T12:19:39.476Z,49.30
2022-10-12T12:20:44.787Z,49.30
2022-10-12T12:22:13.015Z,49.30
2022-10-12T12:23:25.742Z,49.40
2022-10-12T12:24:28.167Z,49.50
2022-10-12T12:25:32.281Z,49.40
2022-10-12T12:26:34.655Z,49.50
2022-10-12T12:27:45.431Z,49.60
2022-10-12T12:29:07.425Z,49.50
2022-10-12T12:30:18.535Z,49.60
2022-10-12T12:31:23.624Z,49.70
2022-10-12T12:32:39.463Z,49.60
2022-10-12T12:33:46.004Z,49.70
2022-10-12T12:35:00.771Z,49.70
2022-10-12T12:36:07.408Z,49.80
2022-10-12T12:37:12.685Z,49.80
2022-10-12T12:38:17.270Z,49.90
2022-10-12T12:39:30.558Z,49.80
2022-10-12T12:40:33.562Z,49.90
2022-10-12T12:42:00.524Z,50.00
2022-10-12T12:43:31.075Z,50.00
2022-10-12T12:44:40.695Z,50.00
2022-10-12T12:46:04.443Z,50.00
2022-10-12T12:47:26.435Z,50.10
2022-10-12T12:48:46.704Z,50.10
2022-10-12T12:50:00.161Z,50.20
2022-10-12T12:51:04.303Z,50.20
2022-10-12T12:52:32.802Z,50.20
2022-10-12T12:53:48.724Z,50.20
2022-10-12T12:55:08.946Z,50.30
2022-10-12T12:56:28.792Z,50.30
2022-10-12T12:58:02.498Z,50.30
2022-10-12T12:59:27.941Z,50.30
2022-10-12T13:00:39.190Z,50.30
2022-10-12T13:01:44.922Z,50.40
2022-10-12T13:03:07.826Z,50.40
2022-10-12T13:05:02.731Z,50.40
2022-10-12T13:06:14.216Z,50.50
2022-10-12T13:07:39.422Z,50.50
2022-10-12T13:08:56.751Z,50.60
2022-10-12T13:10:14.002Z,50.60
2022-10-12T13:11:27.979Z,50.60
2022-10-12T13:12:55.618Z,50.60
2022-10-12T13:14:13.168Z,50.70
2022-10-12T13:15:35.238Z,50.70
2022-10-12T13:18:57.773Z,50.70
2022-10-12T13:20:11.299Z,50.80
2022-10-12T13:21:18.534Z,50.80
2022-10-12T13:22:33.244Z,50.80
2022-10-12T13:23:36.899Z,50.80
2022-10-12T13:24:50.260Z,50.80
2022-10-12T13:26:02.517Z,50.90
2022-10-12T13:27:13.218Z,50.90
2022-10-12T13:28:20.428Z,50.90
2022-10-12T13:29:41.336Z,51.50
2022-10-12T13:30:59.884Z,51.00
2022-10-12T13:32:08.063Z,51.00
2022-10-12T13:33:10.446Z,51.00
2022-10-12T13:34:27.111Z,51.00
2022-10-12T13:35:47.340Z,51.00
2022-10-12T13:37:11.519Z,51.00
2022-10-12T13:38:19.150Z,51.00
2022-10-12T13:39:22.442Z,51.10
2022-10-12T13:40:36.044Z,51.10
2022-10-12T13:41:39.784Z,51.10
2022-10-12T13:42:42.127Z,51.10
2022-10-12T13:44:05.608Z,51.10
2022-10-12T13:45:08.797Z,51.10
2022-10-12T13:46:13.397Z,51.20
2022-10-12T13:47:25.038Z,51.20
2022-10-12T13:48:57.682Z,51.20
2022-10-12T13:49:52.054Z,51.20
2022-10-12T13:51:02.434Z,51.20
2022-10-12T13:52:13.917Z,51.30
2022-10-12T13:53:16.739Z,51.30
2022-10-12T13:54:34.128Z,51.30
2022-10-12T13:55:36.440Z,51.30
2022-10-12T13:56:39.895Z,51.30
2022-10-12T13:57:50.073Z,51.30
2022-10-12T13:58:59.801Z,51.40
2022-10-12T14:00:10.126Z,51.40
2022-10-12T14:01:13.697Z,51.40
2022-10-12T14:02:21.912Z,51.40
2022-10-12T14:03:27.335Z,51.40
2022-10-12T14:04:31.983Z,51.40
2022-10-12T14:05:42.094Z,51.40
2022-10-12T14:06:50.734Z,51.40
2022-10-12T14:07:56.664Z,51.40
2022-10-12T14:09:10.147Z,51.40
2022-10-12T14:10:26.028Z,51.50
2022-10-12T14:11:29.549Z,51.50
2022-10-12T14:12:32.794Z,51.50
2022-10-12T14:13:35.900Z,51.50
2022-10-12T14:14:40.719Z,51.50
2022-10-12T14:15:43.051Z,51.50
2022-10-12T14:16:45.380Z,51.60
2022-10-12T14:17:52.605Z,51.50
2022-10-12T14:18:54.866Z,51.50
2022-10-12T14:20:38.584Z,51.60
2022-10-12T14:21:46.470Z,51.60
2022-10-12T14:22:49.580Z,51.60
2022-10-12T14:23:57.490Z,51.60
2022-10-12T14:25:11.225Z,51.60
2022-10-12T14:26:31.594Z,51.60
2022-10-12T14:27:35.774Z,51.70
2022-10-12T14:28:38.137Z,51.70
2022-10-12T14:29:45.937Z,51.70
2022-10-12T14:30:52.667Z,51.70
2022-10-12T14:32:00.787Z,51.70
2022-10-12T14:33:22.301Z,51.80
2022-10-12T14:34:27.188Z,51.80
2022-10-12T14:35:30.494Z,51.80
2022-10-12T14:36:32.885Z,51.80
2022-10-12T14:37:35.195Z,51.80
2022-10-12T14:38:47.457Z,51.80
2022-10-12T14:39:52.249Z,51.80